createdAt,value
2022-12-03T00:03:11.452Z,13.76
2022-12-03T00:08:14.456Z,13.70
2022-12-03T00:13:17.162Z,13.63
2022-12-03T00:18:21.796Z,13.54
2022-12-03T00:23:25.078Z,13.51
2022-12-03T00:28:28.299Z,13.41
2022-12-03T00:33:32.413Z,13.40
2022-12-03T00:38:35.133Z,13.35
2022-12-03T00:43:37.842Z,13.28
2022-12-03T00:48:41.911Z,13.25
2022-12-03T00:53:44.590Z,13.17
2022-12-03T00:58:47.278Z,13.11
2022-12-03T01:03:51.455Z,13.08
2022-12-03T01:08:54.177Z,13.02
2022-12-03T01:13:56.954Z,13.01
2022-12-03T01:19:01.105Z,12.94
2022-12-03T01:24:04.252Z,12.90
2022-12-03T01:29:07.273Z,12.85
2022-12-03T01:34:11.319Z,12.84
2022-12-03T01:39:14.027Z,12.81
2022-12-03T01:44:18.479Z,12.76
2022-12-03T01:49:25.408Z,12.72
2022-12-03T01:54:32.156Z,12.68
2022-12-03T01:59:37.339Z,12.63
2022-12-03T02:04:41.405Z,12.55
2022-12-03T02:09:44.111Z,12.54
2022-12-03T02:14:47.212Z,12.50
2022-12-03T02:19:51.413Z,12.45
2022-12-03T02:24:57.330Z,12.43
2022-12-03T02:30:01.534Z,12.37
2022-12-03T02:35:04.582Z,12.34
2022-12-03T02:40:10.715Z,12.31
2022-12-03T02:45:16.927Z,12.25
2022-12-03T02:50:22.029Z,12.23
2022-12-03T02:55:25.493Z,12.23
2022-12-03T03:00:29.844Z,12.21
2022-12-03T03:05:33.697Z,12.19
2022-12-03T03:10:37.546Z,12.16
2022-12-03T03:15:42.477Z,12.15
2022-12-03T03:20:45.825Z,12.09
2022-12-03T03:25:50.503Z,12.10
2022-12-03T03:30:55.843Z,12.03
2022-12-03T03:36:00.353Z,11.99
2022-12-03T03:41:04.829Z,11.97
2022-12-03T03:46:09.526Z,11.94
2022-12-03T03:51:13.374Z,11.91
2022-12-03T03:56:17.412Z,11.87
2022-12-03T04:01:21.531Z,11.88
2022-12-03T04:06:24.217Z,11.85
2022-12-03T04:11:44.656Z,11.81
2022-12-03T04:16:48.832Z,11.79
2022-12-03T04:22:09.211Z,11.74
2022-12-03T04:27:29.402Z,11.71
2022-12-03T04:33:02.582Z,11.70
2022-12-03T04:38:05.317Z,11.65
2022-12-03T04:43:08.005Z,11.64
2022-12-03T04:48:12.031Z,11.60
2022-12-03T04:53:14.836Z,11.55
2022-12-03T04:58:17.578Z,11.53
2022-12-03T05:03:21.609Z,11.54
2022-12-03T05:08:24.411Z,11.50
2022-12-03T05:13:31.748Z,11.50
2022-12-03T05:18:35.817Z,11.44
2022-12-03T05:23:38.506Z,11.44
2022-12-03T05:28:41.255Z,11.39
2022-12-03T05:33:45.542Z,11.41
2022-12-03T05:38:48.289Z,11.39
2022-12-03T05:43:50.999Z,11.37
2022-12-03T05:48:55.053Z,11.35
2022-12-03T05:53:57.753Z,11.33
2022-12-03T05:59:00.474Z,11.32
2022-12-03T06:04:04.714Z,11.29
2022-12-03T06:09:07.445Z,11.28
2022-12-03T06:14:10.328Z,11.27
2022-12-03T06:19:14.371Z,11.23
2022-12-03T06:24:17.101Z,11.21
2022-12-03T06:29:19.781Z,11.16
2022-12-03T06:34:23.830Z,11.14
2022-12-03T06:39:26.567Z,11.14
2022-12-03T06:44:29.270Z,11.09
2022-12-03T06:49:33.306Z,11.07
2022-12-03T06:54:36.041Z,11.04
2022-12-03T06:59:38.795Z,11.01
2022-12-03T07:04:46.293Z,11.01
2022-12-03T07:09:49.246Z,10.98
2022-12-03T07:14:52.412Z,10.94
2022-12-03T07:19:56.610Z,10.91
2022-12-03T07:24:59.266Z,10.91
2022-12-03T07:30:02.136Z,10.88
2022-12-03T07:35:07.449Z,10.89
2022-12-03T07:40:11.374Z,10.88
2022-12-03T07:45:14.018Z,10.87
2022-12-03T07:50:18.109Z,10.86
2022-12-03T07:55:21.253Z,10.85
2022-12-03T08:00:24.809Z,10.82
2022-12-03T08:05:29.553Z,10.82
2022-12-03T08:10:32.416Z,10.82
2022-12-03T08:15:39.319Z,10.80
2022-12-03T08:20:44.784Z,10.78
2022-12-03T08:25:47.774Z,10.78
2022-12-03T08:31:00.329Z,10.76
2022-12-03T08:36:12.227Z,10.78
2022-12-03T08:41:37.397Z,10.80
2022-12-03T08:46:40.167Z,10.82
2022-12-03T08:51:44.251Z,10.82
2022-12-03T08:56:46.937Z,10.87
2022-12-03T09:01:50.103Z,10.89
2022-12-03T09:06:54.749Z,10.85
2022-12-03T09:11:57.710Z,10.88
2022-12-03T09:17:00.538Z,10.87
2022-12-03T09:22:04.689Z,10.88
2022-12-03T09:27:07.351Z,10.93
2022-12-03T09:32:15.132Z,10.95
2022-12-03T09:37:22.289Z,10.97
2022-12-03T09:42:25.899Z,10.98
2022-12-03T09:47:29.340Z,11.00
2022-12-03T09:52:34.602Z,10.99
2022-12-03T09:57:37.538Z,11.01
2022-12-03T10:02:40.209Z,10.99
2022-12-03T10:07:44.277Z,11.01
2022-12-03T10:12:47.198Z,11.01
2022-12-03T10:17:51.881Z,11.02
2022-12-03T10:22:55.898Z,11.00
2022-12-03T10:28:00.499Z,10.99
2022-12-03T10:33:17.359Z,10.95
2022-12-03T10:38:23.615Z,10.94
2022-12-03T10:43:26.772Z,10.94
2022-12-03T10:48:29.466Z,11.00
2022-12-03T10:53:35.523Z,11.44
2022-12-03T10:58:39.513Z,11.76
2022-12-03T11:03:42.398Z,12.14
2022-12-03T11:08:52.972Z,12.39
2022-12-03T11:14:00.124Z,12.66
2022-12-03T11:19:03.519Z,12.95
2022-12-03T11:24:28.318Z,13.24
2022-12-03T11:29:59.777Z,13.36
2022-12-03T11:35:02.585Z,13.63
2022-12-03T11:40:27.845Z,13.87
2022-12-03T11:45:33.051Z,14.05
2022-12-03T11:50:40.294Z,14.12
2022-12-03T11:55:48.572Z,14.19
2022-12-03T12:01:08.012Z,14.27
2022-12-03T12:06:12.120Z,14.31
2022-12-03T12:11:20.115Z,14.33
2022-12-03T12:16:42.346Z,14.32
2022-12-03T12:21:47.725Z,14.30
2022-12-03T12:26:52.693Z,14.29
2022-12-03T12:32:00.246Z,14.22
2022-12-03T12:37:03.975Z,14.16
2022-12-03T12:42:27.807Z,14.10
2022-12-03T12:47:32.074Z,14.04
2022-12-03T12:52:34.842Z,13.90
2022-12-03T12:57:38.865Z,13.83
2022-12-03T13:02:45.277Z,13.70
2022-12-03T13:07:48.214Z,13.60
2022-12-03T13:12:52.390Z,13.44
2022-12-03T13:17:55.200Z,13.35
2022-12-03T13:22:58.434Z,13.30
2022-12-03T13:28:02.499Z,13.19
2022-12-03T13:33:11.579Z,13.11
2022-12-03T13:38:17.009Z,13.03
2022-12-03T13:43:21.031Z,12.98
2022-12-03T13:48:25.540Z,12.90
2022-12-03T13:53:30.663Z,12.91
2022-12-03T13:58:34.660Z,12.88
2022-12-03T14:03:37.394Z,12.79
2022-12-03T14:08:40.108Z,12.69
2022-12-03T14:13:44.136Z,12.64
2022-12-03T14:18:46.844Z,12.54
2022-12-03T14:23:49.567Z,12.53
2022-12-03T14:28:53.572Z,12.50
2022-12-03T14:33:56.266Z,12.39
2022-12-03T14:38:58.908Z,12.32
2022-12-03T14:44:02.942Z,12.26
2022-12-03T14:49:05.663Z,12.24
2022-12-03T14:54:08.325Z,12.21
2022-12-03T14:59:12.361Z,12.17
2022-12-03T15:04:15.064Z,12.13
2022-12-03T15:09:18.338Z,12.10
2022-12-03T15:14:22.378Z,12.03
2022-12-03T15:19:25.052Z,11.98
2022-12-03T15:24:27.681Z,11.93
2022-12-03T15:29:32.833Z,11.89
2022-12-03T15:34:35.534Z,11.86
2022-12-03T15:39:40.361Z,11.82
2022-12-03T15:44:49.056Z,11.76
2022-12-03T15:49:52.000Z,11.72
2022-12-03T15:54:55.163Z,11.72
2022-12-03T16:00:00.116Z,11.66
2022-12-03T16:05:03.133Z,11.62
2022-12-03T16:10:06.845Z,11.56
2022-12-03T16:15:11.438Z,11.55
2022-12-03T16:20:14.120Z,11.53
2022-12-03T16:25:16.899Z,11.48
2022-12-03T16:30:21.195Z,11.46
2022-12-03T16:35:23.919Z,11.57
2022-12-03T16:40:26.791Z,12.11
2022-12-03T16:45:48.187Z,12.50
2022-12-03T16:50:50.914Z,12.84
2022-12-03T16:55:53.584Z,13.04
2022-12-03T17:00:57.557Z,13.30
2022-12-03T17:06:00.271Z,13.54
2022-12-03T17:11:02.951Z,13.83
2022-12-03T17:16:07.778Z,13.97
2022-12-03T17:21:10.456Z,14.18
2022-12-03T17:26:13.075Z,14.30
2022-12-03T17:31:17.218Z,14.45
2022-12-03T17:36:19.963Z,14.53
2022-12-03T17:41:23.948Z,14.59
2022-12-03T17:46:28.025Z,14.57
2022-12-03T17:51:30.695Z,14.58
2022-12-03T17:56:33.603Z,14.64
2022-12-03T18:01:37.679Z,14.60
2022-12-03T18:06:40.628Z,14.62
2022-12-03T18:11:43.312Z,14.75
2022-12-03T18:16:47.352Z,14.85
2022-12-03T18:21:50.039Z,14.95
2022-12-03T18:26:52.798Z,14.98
2022-12-03T18:31:56.950Z,14.99
2022-12-03T18:36:59.752Z,15.06
2022-12-03T18:42:02.602Z,15.03
2022-12-03T18:47:11.668Z,14.91
2022-12-03T18:52:14.944Z,14.91
2022-12-03T18:57:17.849Z,14.92
2022-12-03T19:07:45.094Z,15.08
2022-12-03T19:12:47.894Z,15.17
2022-12-03T19:17:52.057Z,15.21
2022-12-03T19:22:54.799Z,15.23
2022-12-03T19:27:57.505Z,15.25
2022-12-03T19:33:01.493Z,15.13
2022-12-03T19:38:04.161Z,15.12
2022-12-03T19:43:06.880Z,14.99
2022-12-03T19:48:10.906Z,15.08
2022-12-03T19:53:13.622Z,15.16
2022-12-03T19:58:16.321Z,15.29
2022-12-03T20:03:20.361Z,15.36
2022-12-03T20:08:23.140Z,15.38
2022-12-03T20:13:25.921Z,15.32
2022-12-03T20:18:29.926Z,15.37
2022-12-03T20:23:32.597Z,15.29
2022-12-03T20:28:35.305Z,15.23
2022-12-03T20:33:39.608Z,15.21
2022-12-03T20:38:42.377Z,15.30
2022-12-03T20:43:45.100Z,15.45
2022-12-03T20:48:49.127Z,15.50
2022-12-03T20:53:52.204Z,15.53
2022-12-03T20:58:54.926Z,15.52
2022-12-03T21:03:59.336Z,15.52
2022-12-03T21:09:02.320Z,15.46
2022-12-03T21:14:05.518Z,15.47
2022-12-03T21:19:10.461Z,15.35
2022-12-03T21:24:14.268Z,15.45
2022-12-03T21:29:17.085Z,15.53
2022-12-03T21:34:21.136Z,15.62
2022-12-03T21:39:23.821Z,15.68
2022-12-03T21:44:26.518Z,15.63
2022-12-03T21:49:30.537Z,15.60
2022-12-03T21:54:33.188Z,15.55
2022-12-03T21:59:35.872Z,15.57
2022-12-03T22:04:39.949Z,15.46
2022-12-03T22:09:42.738Z,15.48
2022-12-03T22:14:45.393Z,15.62
2022-12-03T22:19:49.400Z,15.68
2022-12-03T22:24:52.271Z,15.68
2022-12-03T22:29:55.305Z,15.74
2022-12-03T22:34:59.694Z,15.72
2022-12-03T22:40:02.427Z,15.68
2022-12-03T22:45:05.917Z,15.62
2022-12-03T22:50:10.759Z,15.63
2022-12-03T22:55:13.469Z,15.53
2022-12-03T23:00:27.853Z,15.53
2022-12-03T23:05:36.805Z,15.67
2022-12-03T23:10:43.440Z,15.69
2022-12-03T23:15:47.123Z,15.75
2022-12-03T23:20:53.449Z,15.74
2022-12-03T23:25:59.949Z,15.70
2022-12-03T23:31:02.915Z,15.69
2022-12-03T23:36:08.256Z,15.62
2022-12-03T23:41:12.218Z,15.55
2022-12-03T23:46:16.090Z,15.49
2022-12-03T23:51:22.426Z,15.35
2022-12-03T23:56:27.225Z,15.32
